createdAt,value
2023-02-01T00:01:38.093Z,86.87
2023-02-01T00:04:44.229Z,86.51
2023-02-01T00:07:52.226Z,85.98
2023-02-01T00:11:06.594Z,85.51
2023-02-01T00:14:13.388Z,85.37
2023-02-01T00:17:21.886Z,85.39
2023-02-01T00:20:28.457Z,85.23
2023-02-01T00:23:37.661Z,85.07
2023-02-01T00:26:47.511Z,84.79
2023-02-01T00:29:53.400Z,84.72
2023-02-01T00:33:02.617Z,84.34
2023-02-01T00:36:12.883Z,84.38
2023-02-01T00:39:20.338Z,84.13
2023-02-01T00:42:26.074Z,83.54
2023-02-01T00:45:32.772Z,83.40
2023-02-01T00:48:41.388Z,82.91
2023-02-01T00:51:51.538Z,81.93
2023-02-01T00:54:57.347Z,81.68
2023-02-01T00:58:03.919Z,80.78
2023-02-01T01:04:53.369Z,79.57
2023-02-01T01:07:59.133Z,79.41
2023-02-01T01:11:10.661Z,79.52
2023-02-01T01:14:16.427Z,81.61
2023-02-01T01:17:23.204Z,82.49
2023-02-01T01:20:31.679Z,83.82
2023-02-01T01:23:39.843Z,84.93
2023-02-01T01:26:45.787Z,85.60
2023-02-01T01:29:52.487Z,85.89
2023-02-01T01:32:58.272Z,86.84
2023-02-01T01:36:15.035Z,87.17
2023-02-01T01:39:20.767Z,87.79
2023-02-01T01:42:27.448Z,87.78
2023-02-01T01:45:36.606Z,87.67
2023-02-01T01:48:43.318Z,87.88
2023-02-01T01:51:59.419Z,88.02
2023-02-01T01:55:07.537Z,88.27
2023-02-01T01:58:21.609Z,88.26
2023-02-01T02:01:28.832Z,88.31
2023-02-01T02:04:37.280Z,88.79
2023-02-01T02:07:54.832Z,88.74
2023-02-01T02:11:03.916Z,89.10
2023-02-01T02:14:17.194Z,88.83
2023-02-01T02:17:51.122Z,88.25
2023-02-01T02:21:20.420Z,88.31
2023-02-01T02:25:09.628Z,87.98
2023-02-01T02:29:00.308Z,87.45
2023-02-01T02:33:02.588Z,86.71
2023-02-01T02:36:27.270Z,87.03
2023-02-01T02:39:55.330Z,86.51
2023-02-01T02:43:25.823Z,86.28
2023-02-01T02:46:55.158Z,86.34
2023-02-01T02:50:35.197Z,85.98
2023-02-01T02:54:13.783Z,86.14
2023-02-01T02:57:39.166Z,86.16
2023-02-01T03:01:01.577Z,86.16
2023-02-01T03:04:18.583Z,86.31
2023-02-01T03:08:20.494Z,86.52
2023-02-01T03:11:49.697Z,86.38
2023-02-01T03:15:16.506Z,86.11
2023-02-01T03:18:44.150Z,86.22
2023-02-01T03:21:57.393Z,86.14
2023-02-01T03:25:16.624Z,86.36
2023-02-01T03:28:31.934Z,86.52
2023-02-01T03:31:38.735Z,86.35
2023-02-01T03:34:45.505Z,86.76
2023-02-01T03:37:56.553Z,86.95
2023-02-01T03:41:15.282Z,86.62
2023-02-01T03:44:35.005Z,86.71
2023-02-01T03:47:50.803Z,86.83
2023-02-01T03:51:05.936Z,86.54
2023-02-01T03:54:19.307Z,86.51
2023-02-01T03:57:33.796Z,86.90
2023-02-01T04:00:43.915Z,87.16
2023-02-01T04:03:52.411Z,86.88
2023-02-01T04:06:58.186Z,86.55
2023-02-01T04:10:05.135Z,86.58
2023-02-01T04:13:10.888Z,86.40
2023-02-01T04:16:20.120Z,86.40
2023-02-01T04:19:25.828Z,85.92
2023-02-01T04:22:32.681Z,85.75
2023-02-01T04:25:38.444Z,85.49
2023-02-01T04:28:45.256Z,85.33
2023-02-01T04:31:54.278Z,85.20
2023-02-01T04:35:01.410Z,84.79
2023-02-01T04:38:08.128Z,84.50
2023-02-01T04:41:14.784Z,84.57
2023-02-01T04:44:22.325Z,84.41
2023-02-01T04:47:31.514Z,84.93
2023-02-01T04:50:37.262Z,85.12
2023-02-01T04:53:43.841Z,85.54
2023-02-01T04:56:49.699Z,85.48
2023-02-01T04:59:56.279Z,85.55
2023-02-01T05:03:05.151Z,86.02
2023-02-01T05:06:11.839Z,86.18
2023-02-01T05:09:17.715Z,86.35
2023-02-01T05:12:37.503Z,85.96
2023-02-01T05:15:43.451Z,86.09
2023-02-01T05:18:53.346Z,85.86
2023-02-01T05:22:00.242Z,85.55
2023-02-01T05:25:08.407Z,85.04
2023-02-01T05:28:18.005Z,84.72
2023-02-01T05:31:25.457Z,84.43
2023-02-01T05:34:34.144Z,84.02
2023-02-01T05:37:41.627Z,83.51
2023-02-01T05:40:50.773Z,83.37
2023-02-01T05:43:57.460Z,82.75
2023-02-01T05:47:03.329Z,82.30
2023-02-01T05:50:13.811Z,81.65
2023-02-01T05:53:21.049Z,81.83
2023-02-01T05:56:27.595Z,81.00
2023-02-01T05:59:34.046Z,80.91
2023-02-01T06:02:40.747Z,81.08
2023-02-01T06:05:52.019Z,81.03
2023-02-01T06:08:58.977Z,80.85
2023-02-01T06:12:05.023Z,80.66
2023-02-01T06:15:16.379Z,80.42
2023-02-01T06:18:22.327Z,80.10
2023-02-01T06:21:34.700Z,79.91
2023-02-01T06:24:40.880Z,79.99
2023-02-01T06:27:48.061Z,79.92
2023-02-01T06:30:53.981Z,79.67
2023-02-01T06:34:08.191Z,79.62
2023-02-01T06:37:16.656Z,79.34
2023-02-01T06:40:23.767Z,78.55
2023-02-01T06:43:31.478Z,78.32
2023-02-01T06:46:38.220Z,78.10
2023-02-01T06:49:44.390Z,77.63
2023-02-01T06:53:00.431Z,77.80
2023-02-01T06:56:17.674Z,77.63
2023-02-01T06:59:25.306Z,77.86
2023-02-01T07:02:31.254Z,78.18
2023-02-01T07:05:37.899Z,78.63
2023-02-01T07:08:46.409Z,78.77
2023-02-01T07:11:53.199Z,78.61
2023-02-01T07:14:59.004Z,78.49
2023-02-01T07:18:05.743Z,78.56
2023-02-01T07:21:12.521Z,78.34
2023-02-01T07:24:21.868Z,77.75
2023-02-01T07:27:27.818Z,78.13
2023-02-01T07:30:34.538Z,78.33
2023-02-01T07:33:41.094Z,78.45
2023-02-01T07:36:47.702Z,78.62
2023-02-01T07:39:56.520Z,78.24
2023-02-01T07:43:03.159Z,77.76
2023-02-01T07:46:10.845Z,77.83
2023-02-01T07:49:25.589Z,77.29
2023-02-01T07:52:33.484Z,77.44
2023-02-01T07:55:45.070Z,77.18
2023-02-01T07:58:52.505Z,77.32
2023-02-01T08:01:59.142Z,77.44
2023-02-01T08:05:08.639Z,77.74
2023-02-01T08:08:15.340Z,77.61
2023-02-01T08:11:29.312Z,77.92
2023-02-01T08:14:35.935Z,77.80
2023-02-01T08:17:41.655Z,78.24
2023-02-01T08:20:49.530Z,77.56
2023-02-01T08:23:57.448Z,77.77
2023-02-01T08:27:07.716Z,77.45
2023-02-01T08:30:15.693Z,77.48
2023-02-01T08:33:23.199Z,77.61
2023-02-01T08:36:37.605Z,77.35
2023-02-01T08:39:47.865Z,77.42
2023-02-01T08:42:58.672Z,76.78
2023-02-01T08:46:12.086Z,77.30
2023-02-01T08:49:18.066Z,76.79
2023-02-01T08:52:24.829Z,76.75
2023-02-01T08:55:32.529Z,76.24
2023-02-01T08:58:42.493Z,76.62
2023-02-01T09:01:48.258Z,76.92
2023-02-01T09:04:55.071Z,77.46
2023-02-01T09:08:01.543Z,77.57
2023-02-01T09:11:13.981Z,78.35
2023-02-01T09:14:22.497Z,78.11
2023-02-01T09:17:30.843Z,77.53
2023-02-01T09:20:37.152Z,77.19
2023-02-01T09:23:44.619Z,77.16
2023-02-01T09:26:50.842Z,77.35
2023-02-01T09:30:00.196Z,78.39
2023-02-01T09:33:14.065Z,79.25
2023-02-01T09:36:20.924Z,78.31
2023-02-01T09:39:27.103Z,78.50
2023-02-01T09:43:04.077Z,78.06
2023-02-01T09:46:28.025Z,77.42
2023-02-01T09:49:49.811Z,76.49
2023-02-01T09:53:04.492Z,76.02
2023-02-01T09:56:22.187Z,75.45
2023-02-01T09:59:44.894Z,75.64
2023-02-01T10:02:55.216Z,74.70
2023-02-01T10:06:45.415Z,74.39
2023-02-01T10:10:11.986Z,74.39
2023-02-01T10:13:43.901Z,73.17
2023-02-01T10:17:08.994Z,73.47
2023-02-01T10:20:34.539Z,73.72
2023-02-01T10:24:18.117Z,74.15
2023-02-01T10:27:30.530Z,74.84
2023-02-01T10:30:49.202Z,74.69
2023-02-01T10:34:03.382Z,75.52
2023-02-01T10:37:30.917Z,74.72
2023-02-01T10:40:38.982Z,75.10
2023-02-01T10:43:49.446Z,75.49
2023-02-01T10:46:55.715Z,76.27
2023-02-01T10:50:19.436Z,75.83
2023-02-01T10:53:39.430Z,76.27
2023-02-01T10:56:49.633Z,75.79
2023-02-01T10:59:55.844Z,75.95
2023-02-01T11:03:08.680Z,75.94
2023-02-01T11:06:32.546Z,76.53
2023-02-01T11:09:45.463Z,76.00
2023-02-01T11:12:59.113Z,76.21
2023-02-01T11:16:18.718Z,75.50
2023-02-01T11:19:26.189Z,75.99
2023-02-01T11:22:33.815Z,75.95
2023-02-01T11:25:42.469Z,76.65
2023-02-01T11:29:00.816Z,77.21
2023-02-01T11:32:08.951Z,78.08
2023-02-01T11:35:25.491Z,77.82
2023-02-01T11:38:35.406Z,78.31
2023-02-01T11:42:07.530Z,78.08
2023-02-01T11:45:28.983Z,77.66
2023-02-01T11:48:37.993Z,77.50
2023-02-01T11:52:04.183Z,77.61
2023-02-01T11:55:51.815Z,77.70
2023-02-01T11:59:48.681Z,77.39
2023-02-01T12:03:53.447Z,77.46
2023-02-01T12:07:09.275Z,76.84
2023-02-01T12:10:38.361Z,76.46
2023-02-01T12:14:06.219Z,77.16
2023-02-01T12:17:58.473Z,77.29
2023-02-01T12:21:29.939Z,76.66
2023-02-01T12:25:20.919Z,75.94
2023-02-01T12:29:06.321Z,75.95
2023-02-01T12:32:43.663Z,76.18
2023-02-01T12:36:11.736Z,76.20
2023-02-01T12:39:32.487Z,75.94
2023-02-01T12:42:47.509Z,76.34
2023-02-01T12:46:06.056Z,76.42
2023-02-01T12:49:26.587Z,76.69
2023-02-01T12:52:47.324Z,77.55
2023-02-01T12:55:59.823Z,77.79
2023-02-01T12:59:17.262Z,77.73
2023-02-01T13:02:43.379Z,77.02
2023-02-01T13:06:15.343Z,76.99
2023-02-01T13:09:39.965Z,76.92
2023-02-01T13:13:06.946Z,76.75
2023-02-01T13:16:28.278Z,76.50
2023-02-01T13:19:48.511Z,75.44
2023-02-01T13:23:07.055Z,74.84
2023-02-01T13:26:15.390Z,75.27
2023-02-01T13:29:26.300Z,74.33
2023-02-01T13:33:53.513Z,74.41
2023-02-01T13:36:56.732Z,74.11
2023-02-01T13:40:35.359Z,75.39
2023-02-01T13:43:59.748Z,76.18
2023-02-01T13:47:33.595Z,77.43
2023-02-01T13:50:45.056Z,79.14
2023-02-01T13:53:53.528Z,80.12
2023-02-01T13:57:06.664Z,80.88
2023-02-01T14:00:31.678Z,81.59
2023-02-01T14:03:50.763Z,81.39
2023-02-01T14:07:00.485Z,81.67
2023-02-01T14:10:51.833Z,82.41
2023-02-01T14:14:47.445Z,82.71
2023-02-01T14:17:54.324Z,83.41
2023-02-01T14:21:24.284Z,83.36
2023-02-01T14:24:35.939Z,83.68
2023-02-01T14:27:43.559Z,84.10
2023-02-01T14:30:53.619Z,84.20
2023-02-01T14:34:06.980Z,84.73
2023-02-01T14:37:30.730Z,85.05
2023-02-01T14:40:38.889Z,85.35
2023-02-01T14:44:15.744Z,85.30
2023-02-01T14:47:39.966Z,85.99
2023-02-01T14:50:51.613Z,85.88
2023-02-01T14:53:58.980Z,86.06
2023-02-01T14:57:07.178Z,86.04
2023-02-01T15:00:27.341Z,85.96
2023-02-01T15:03:58.527Z,85.60
2023-02-01T15:07:16.319Z,85.19
2023-02-01T15:10:25.176Z,84.85
2023-02-01T15:13:33.289Z,84.64
2023-02-01T15:16:51.179Z,84.59
2023-02-01T15:20:07.520Z,84.51
2023-02-01T15:23:21.798Z,83.68
2023-02-01T15:26:34.977Z,83.58
2023-02-01T15:29:41.297Z,83.66
2023-02-01T15:32:52.520Z,84.13
2023-02-01T15:36:15.080Z,83.69
2023-02-01T15:39:27.013Z,83.81
2023-02-01T15:42:34.046Z,83.60
2023-02-01T15:45:41.148Z,83.68
2023-02-01T15:48:52.659Z,83.75
2023-02-01T15:52:07.549Z,83.73
2023-02-01T15:55:27.612Z,83.74
2023-02-01T15:58:36.878Z,84.45
2023-02-01T16:01:45.854Z,84.32
2023-02-01T16:04:56.490Z,84.01
2023-02-01T16:08:16.503Z,84.05
2023-02-01T16:11:31.901Z,83.67
2023-02-01T16:14:37.877Z,83.26
2023-02-01T16:17:46.302Z,83.10
2023-02-01T16:20:53.073Z,82.75
2023-02-01T16:24:06.753Z,82.28
2023-02-01T16:27:13.115Z,81.94
2023-02-01T16:30:24.379Z,81.97
2023-02-01T16:33:30.686Z,81.35
2023-02-01T16:36:52.987Z,81.01
2023-02-01T16:40:05.057Z,80.46
2023-02-01T16:43:32.496Z,80.50
2023-02-01T16:46:47.209Z,80.25
2023-02-01T16:49:54.618Z,79.56
2023-02-01T16:53:00.738Z,78.95
2023-02-01T16:56:19.165Z,79.02
2023-02-01T16:59:26.516Z,78.59
2023-02-01T17:02:33.204Z,79.10
2023-02-01T17:05:39.425Z,79.32
2023-02-01T17:08:51.857Z,78.83
2023-02-01T17:12:00.417Z,78.59
2023-02-01T17:15:11.521Z,78.56
2023-02-01T17:18:23.255Z,78.57
2023-02-01T17:21:38.743Z,78.34
2023-02-01T17:24:48.991Z,78.80
2023-02-01T17:27:58.851Z,78.80
2023-02-01T17:31:11.175Z,78.79
2023-02-01T17:34:19.887Z,78.95
2023-02-01T17:37:38.567Z,78.79
2023-02-01T17:40:46.318Z,78.52
2023-02-01T17:43:57.571Z,78.33
2023-02-01T17:47:17.731Z,78.13
2023-02-01T17:50:26.300Z,77.79
2023-02-01T17:53:36.021Z,77.61
2023-02-01T17:56:42.133Z,76.88
2023-02-01T17:59:51.614Z,76.27
2023-02-01T18:02:57.713Z,75.66
2023-02-01T18:06:16.373Z,75.68
2023-02-01T18:09:22.313Z,75.25
2023-02-01T18:12:37.930Z,75.13
2023-02-01T18:15:47.452Z,75.34
2023-02-01T18:18:57.941Z,75.40
2023-02-01T18:22:07.839Z,75.05
2023-02-01T18:25:21.720Z,74.70
2023-02-01T18:28:31.736Z,75.38
2023-02-01T18:31:55.220Z,75.82
2023-02-01T18:35:01.612Z,76.57
2023-02-01T18:38:08.875Z,76.71
2023-02-01T18:41:20.948Z,76.97
2023-02-01T18:44:28.381Z,76.90
2023-02-01T18:47:49.684Z,76.68
2023-02-01T18:51:14.719Z,77.14
2023-02-01T18:54:29.175Z,77.72
2023-02-01T18:57:36.081Z,77.65
2023-02-01T19:00:43.454Z,78.11
2023-02-01T19:03:58.564Z,77.65
2023-02-01T19:07:16.922Z,77.85
2023-02-01T19:10:27.782Z,77.75
2023-02-01T19:13:37.227Z,78.04
2023-02-01T19:16:48.059Z,78.13
2023-02-01T19:20:03.037Z,78.49
2023-02-01T19:23:10.230Z,78.47
2023-02-01T19:26:18.568Z,78.79
2023-02-01T19:29:26.560Z,79.37
2023-02-01T19:32:32.890Z,79.08
2023-02-01T19:35:45.555Z,79.22
2023-02-01T19:38:51.681Z,79.58
2023-02-01T19:41:59.484Z,79.91
2023-02-01T19:45:13.509Z,79.97
2023-02-01T19:48:24.709Z,79.90
2023-02-01T19:51:33.329Z,79.82
2023-02-01T19:54:43.816Z,80.03
2023-02-01T19:57:49.655Z,80.18
2023-02-01T20:00:57.178Z,80.59
2023-02-01T20:04:18.863Z,80.60
2023-02-01T20:07:28.916Z,80.55
2023-02-01T20:10:35.183Z,80.84
2023-02-01T20:13:42.249Z,79.97
2023-02-01T20:16:48.220Z,80.06
2023-02-01T20:19:58.453Z,79.87
2023-02-01T20:23:07.284Z,79.90
2023-02-01T20:26:15.302Z,80.34
2023-02-01T20:29:21.574Z,80.19
2023-02-01T20:32:28.414Z,80.42
2023-02-01T20:35:36.919Z,80.16
2023-02-01T20:38:48.639Z,79.85
2023-02-01T20:41:55.408Z,79.73
2023-02-01T20:45:02.481Z,79.75
2023-02-01T20:48:08.544Z,80.12
2023-02-01T20:51:18.001Z,81.44
2023-02-01T20:54:27.597Z,82.00
2023-02-01T20:57:34.654Z,82.43
2023-02-01T21:00:40.629Z,83.19
2023-02-01T21:03:47.562Z,83.37
2023-02-01T21:06:53.768Z,84.54
2023-02-01T21:10:03.191Z,85.12
2023-02-01T21:13:10.890Z,85.67
2023-02-01T21:16:23.847Z,86.22
2023-02-01T21:19:43.278Z,86.46
2023-02-01T21:22:50.612Z,86.53
2023-02-01T21:26:05.224Z,86.53
2023-02-01T21:29:14.944Z,86.37
2023-02-01T21:32:20.909Z,86.10
2023-02-01T21:35:27.657Z,85.99
2023-02-01T21:38:33.871Z,85.66
2023-02-01T21:41:55.546Z,85.46
2023-02-01T21:45:02.708Z,85.15
2023-02-01T21:48:09.970Z,84.87
2023-02-01T21:51:17.035Z,84.40
2023-02-01T21:54:24.405Z,84.16
2023-02-01T21:57:36.162Z,84.17
2023-02-01T22:00:45.873Z,84.03
2023-02-01T22:03:52.179Z,83.25
2023-02-01T22:06:58.960Z,83.03
2023-02-01T22:10:06.660Z,82.80
2023-02-01T22:13:20.349Z,82.47
2023-02-01T22:16:26.851Z,82.54
2023-02-01T22:19:34.252Z,82.44
2023-02-01T22:22:40.313Z,82.72
2023-02-01T22:25:46.911Z,83.12
2023-02-01T22:28:56.426Z,83.09
2023-02-01T22:32:03.155Z,83.19
2023-02-01T22:35:10.809Z,83.20
2023-02-01T22:38:17.513Z,83.35
2023-02-01T22:41:24.010Z,83.98
2023-02-01T22:44:33.338Z,84.08
2023-02-01T22:47:39.179Z,84.33
2023-02-01T22:50:49.336Z,84.57
2023-02-01T22:54:00.173Z,84.55
2023-02-01T22:57:08.072Z,84.75
2023-02-01T23:00:26.779Z,84.94
2023-02-01T23:03:43.855Z,84.67
2023-02-01T23:06:49.982Z,84.57
2023-02-01T23:09:58.462Z,84.73
2023-02-01T23:13:04.386Z,85.02
2023-02-01T23:16:23.792Z,84.96
2023-02-01T23:19:29.762Z,85.25
2023-02-01T23:22:42.895Z,85.30
2023-02-01T23:25:54.700Z,85.27
2023-02-01T23:29:03.781Z,85.38
2023-02-01T23:32:12.327Z,85.29
2023-02-01T23:35:19.170Z,85.42
2023-02-01T23:38:25.085Z,85.55
2023-02-01T23:41:33.101Z,85.54
2023-02-01T23:44:38.891Z,85.54
2023-02-01T23:47:48.159Z,85.67
2023-02-01T23:50:54.009Z,85.70
2023-02-01T23:54:01.790Z,85.76
2023-02-01T23:57:07.746Z,85.72
